Time;durP1;ratioP1;P1;durP2;ratioP2;P2;SDS_P1;SDS_P2;PMS_P1;PMS_P2;Temp;Humidity;BMP_temperature;BMP_pressure;BME280_temperature;BME280_humidity;BME280_pressure;Samples;Min_cycle;Max_cycle;Signal;HPM_P1;HPM_P2
2022/01/19 00:01:21;;;;;;;123.05;12.52;;;1.40;93.70;;;;;;5099257;28;20059;-86
2022/01/19 00:03:50;;;;;;;210.63;16.40;;;1.20;93.50;;;;;;5094701;28;20072;-86
2022/01/19 00:06:17;;;;;;;325.05;18.38;;;1.20;93.80;;;;;;5105539;28;20048;-87
2022/01/19 00:08:44;;;;;;;258.77;17.70;;;1.10;93.60;;;;;;5098182;28;20076;-86
2022/01/19 00:11:11;;;;;;;457.52;21.55;;;1.00;94.10;;;;;;5097240;28;20048;-86
2022/01/19 00:13:41;;;;;;;287.10;19.60;;;1.00;94.10;;;;;;5108657;28;20071;-86
2022/01/19 00:16:09;;;;;;;545.78;26.70;;;1.00;94.30;;;;;;5103589;28;20044;-86
2022/01/19 00:18:36;;;;;;;647.33;27.83;;;1.00;94.40;;;;;;5101502;28;20051;-86
2022/01/19 00:21:03;;;;;;;509.52;24.85;;;0.90;94.60;;;;;;5102041;28;20059;-86
2022/01/19 00:23:30;;;;;;;380.92;20.70;;;0.90;94.80;;;;;;5097621;28;20722;-86
2022/01/19 00:25:57;;;;;;;823.50;35.53;;;0.90;95.00;;;;;;5096111;28;20055;-86
2022/01/19 00:28:25;;;;;;;791.50;36.95;;;0.80;94.90;;;;;;5098314;28;20729;-86
2022/01/19 00:30:52;;;;;;;143.52;16.55;;;0.70;95.10;;;;;;5095326;28;20055;-86
2022/01/19 00:33:21;;;;;;;579.05;29.33;;;0.70;95.60;;;;;;5099236;28;20044;-86
2022/01/19 00:35:50;;;;;;;715.28;34.78;;;0.70;95.80;;;;;;5090704;28;20068;-86
2022/01/19 00:38:17;;;;;;;606.38;30.52;;;0.70;95.50;;;;;;5100319;28;20053;-86
2022/01/19 00:40:47;;;;;;;374.02;21.58;;;0.60;95.40;;;;;;5095153;28;20055;-86
2022/01/19 00:43:14;;;;;;;105.28;13.57;;;0.60;95.60;;;;;;5106257;28;20044;-86
2022/01/19 00:45:43;;;;;;;257.67;17.10;;;0.50;95.60;;;;;;5094006;28;20138;-86
2022/01/19 00:48:25;;;;;;;160.10;14.43;;;0.60;95.50;;;;;;5096232;28;20048;-86
2022/01/19 00:50:56;;;;;;;118.53;11.70;;;0.50;95.30;;;;;;5105087;27;20048;-86
2022/01/19 00:53:25;;;;;;;89.15;12.00;;;0.50;95.20;;;;;;5098882;28;20047;-86
2022/01/19 00:55:56;;;;;;;190.80;13.80;;;0.40;95.10;;;;;;5100296;28;20052;-87
2022/01/19 00:58:23;;;;;;;408.42;21.92;;;0.30;94.90;;;;;;5098376;28;20786;-86
2022/01/19 01:00:50;;;;;;;170.80;14.00;;;0.30;94.80;;;;;;5096746;28;20048;-86
2022/01/19 01:03:17;;;;;;;75.55;13.52;;;0.30;94.90;;;;;;5106589;28;20054;-87
2022/01/19 01:05:44;;;;;;;433.95;28.88;;;0.30;95.10;;;;;;5097853;27;20047;-86
2022/01/19 01:08:13;;;;;;;102.03;11.85;;;0.30;94.80;;;;;;5094109;28;20098;-86
2022/01/19 01:10:42;;;;;;;172.48;15.65;;;0.20;95.00;;;;;;5102154;28;20052;-86
2022/01/19 01:16:01;;;;;;;153.40;13.77;;;0.10;95.00;;;;;;5093264;28;20840;-86
2022/01/19 01:18:30;;;;;;;133.23;14.50;;;0.10;95.00;;;;;;5105918;28;20605;-86
2022/01/19 01:20:59;;;;;;;90.55;12.25;;;0.00;94.90;;;;;;5095513;27;20059;-86
2022/01/19 01:23:28;;;;;;;98.45;12.68;;;0.00;94.70;;;;;;5095356;28;20040;-86
2022/01/19 01:25:55;;;;;;;112.50;13.15;;;-0.10;94.60;;;;;;5104643;27;20148;-86
2022/01/19 01:28:22;;;;;;;80.53;12.63;;;-0.20;94.40;;;;;;5102221;27;20149;-85
2022/01/19 01:30:50;;;;;;;121.47;15.80;;;-0.20;94.30;;;;;;5096759;28;20056;-86
2022/01/19 01:33:18;;;;;;;89.25;13.82;;;-0.30;94.20;;;;;;5098131;28;20052;-86
2022/01/19 01:35:47;;;;;;;55.40;14.60;;;-0.30;94.60;;;;;;5102142;28;20138;-86
2022/01/19 01:38:14;;;;;;;33.33;12.07;;;-0.40;94.90;;;;;;5107367;28;20052;-86
2022/01/19 01:41:00;;;;;;;25.83;10.88;;;-0.40;95.50;;;;;;5096834;28;20136;-87
2022/01/19 01:43:27;;;;;;;24.55;11.40;;;-0.40;95.60;;;;;;5093483;28;20064;-87
2022/01/19 01:46:03;;;;;;;36.25;11.07;;;-0.50;95.50;;;;;;5093112;28;20045;-86
2022/01/19 01:48:30;;;;;;;45.20;11.73;;;-0.50;95.30;;;;;;5093520;28;20063;-86
2022/01/19 01:53:42;;;;;;;20.08;10.70;;;-0.60;94.90;;;;;;5100657;28;20510;-86
2022/01/19 01:56:16;;;;;;;23.23;10.80;;;-0.60;94.80;;;;;;5099292;28;20135;-86
2022/01/19 01:58:45;;;;;;;24.52;10.73;;;-0.70;94.60;;;;;;5098460;28;20134;-86
2022/01/19 02:01:14;;;;;;;19.50;10.38;;;-0.70;94.60;;;;;;5094105;28;20935;-86
2022/01/19 02:03:42;;;;;;;18.67;10.48;;;-0.70;94.60;;;;;;5099073;28;20055;-86
2022/01/19 02:08:47;;;;;;;24.60;10.80;;;-0.90;94.60;;;;;;5101470;27;20060;-86
2022/01/19 02:16:43;;;;;;;18.60;10.05;;;-0.90;95.00;;;;;;5099767;28;20049;-87
2022/01/19 02:22:01;;;;;;;19.80;10.15;;;-0.90;94.70;;;;;;5095161;28;20062;-86
2022/01/19 02:24:31;;;;;;;29.15;10.73;;;-0.90;94.90;;;;;;5095288;28;20048;-87
2022/01/19 02:40:48;;;;;;;21.55;9.75;;;-1.10;95.00;;;;;;5099715;28;20058;-86
2022/01/19 02:43:22;;;;;;;21.65;10.75;;;-1.10;94.80;;;;;;5104019;28;20052;-87
2022/01/19 02:51:20;;;;;;;23.65;11.00;;;-1.10;94.60;;;;;;5102498;28;20056;-87
2022/01/19 02:53:47;;;;;;;20.38;10.30;;;-1.20;94.50;;;;;;5110165;28;20029;-86
2022/01/19 02:56:28;;;;;;;24.25;11.35;;;-1.20;94.50;;;;;;5105529;27;20127;-86
2022/01/19 02:59:04;;;;;;;26.20;11.98;;;-1.20;94.60;;;;;;5102910;28;20519;-86
2022/01/19 03:09:29;;;;;;;23.77;11.18;;;-1.20;94.70;;;;;;5104271;27;20045;-86
2022/01/19 03:11:56;;;;;;;26.10;11.65;;;-1.20;94.70;;;;;;5102391;27;20140;-87
2022/01/19 03:14:23;;;;;;;26.63;11.65;;;-1.20;94.70;;;;;;5103321;27;20556;-86
2022/01/19 03:16:49;;;;;;;32.42;13.05;;;-1.20;94.70;;;;;;5111098;28;20131;-86
2022/01/19 03:19:17;;;;;;;34.30;13.70;;;-1.20;94.70;;;;;;5106118;27;20863;-86
2022/01/19 03:21:43;;;;;;;42.00;14.70;;;-1.20;94.90;;;;;;5102342;28;20045;-87
2022/01/19 03:24:11;;;;;;;52.38;14.68;;;-1.20;95.00;;;;;;5097878;28;20044;-87
2022/01/19 03:26:39;;;;;;;49.30;14.27;;;-1.10;95.10;;;;;;5098633;27;20882;-86
2022/01/19 03:29:06;;;;;;;36.28;12.85;;;-1.10;95.40;;;;;;5102675;28;20052;-86
2022/01/19 03:31:33;;;;;;;32.53;13.52;;;-1.10;95.50;;;;;;5099963;28;20136;-87
2022/01/19 03:34:00;;;;;;;42.60;13.93;;;-1.10;95.40;;;;;;5101076;28;20155;-86
2022/01/19 03:36:27;;;;;;;57.00;15.38;;;-1.10;95.30;;;;;;5098802;28;20048;-86
2022/01/19 03:38:53;;;;;;;39.97;13.10;;;-1.10;95.50;;;;;;5099903;28;20045;-87
2022/01/19 03:41:23;;;;;;;39.03;15.05;;;-1.10;95.50;;;;;;5103729;27;20110;-86
2022/01/19 03:43:50;;;;;;;49.30;15.88;;;-1.10;95.50;;;;;;5093977;28;20210;-86
2022/01/19 03:46:17;;;;;;;43.45;15.75;;;-1.10;95.80;;;;;;5101619;28;20053;-86
2022/01/19 03:48:57;;;;;;;41.72;14.52;;;-0.90;96.20;;;;;;5100063;28;20044;-87
2022/01/19 03:51:25;;;;;;;34.53;13.35;;;-0.90;96.20;;;;;;5100386;28;20522;-86
2022/01/19 03:53:51;;;;;;;30.90;12.95;;;-0.90;96.10;;;;;;5101043;28;20446;-86
2022/01/19 03:56:18;;;;;;;29.70;13.05;;;-1.00;95.90;;;;;;5100865;27;20028;-87
2022/01/19 03:58:45;;;;;;;35.72;12.15;;;-1.00;95.90;;;;;;5099897;27;20056;-87
2022/01/19 04:01:13;;;;;;;25.73;10.55;;;-1.00;95.70;;;;;;5093572;28;20151;-87
2022/01/19 04:06:24;;;;;;;30.55;10.90;;;-1.10;95.30;;;;;;5104122;28;20052;-87
2022/01/19 04:08:51;;;;;;;39.58;10.55;;;-1.10;95.30;;;;;;5104548;28;20058;-87
2022/01/19 04:11:22;;;;;;;34.75;12.35;;;-1.20;95.30;;;;;;5106689;28;20098;-87
2022/01/19 04:14:21;;;;;;;25.35;10.80;;;-1.20;95.50;;;;;;5107666;28;20922;-87
2022/01/19 04:16:45;;;;;;;39.20;12.38;;;-1.20;95.50;;;;;;5098558;28;20211;-86
2022/01/19 04:22:02;;;;;;;57.38;12.32;;;-1.10;95.50;;;;;;5088939;27;20418;-87
2022/01/19 04:24:29;;;;;;;106.57;15.10;;;-1.00;95.40;;;;;;5094935;27;20064;-86
2022/01/19 04:30:04;;;;;;;187.02;17.42;;;-1.00;95.40;;;;;;5086315;28;20062;-87
2022/01/19 04:33:17;;;;;;;131.60;17.02;;;-1.00;95.40;;;;;;5096056;27;20056;-87
2022/01/19 04:35:24;;;;;;;539.85;24.50;;;-1.00;95.50;;;;;;5089425;28;20099;-86
2022/01/19 05:02:49;;;;;;;449.63;31.17;;;-0.90;95.80;;;;;;5061313;28;20547;-86
2022/01/19 05:05:33;;;;;;;234.65;22.90;;;-0.90;95.90;;;;;;5067594;28;20540;-86
2022/01/19 05:08:11;;;;;;;201.40;21.98;;;-0.90;96.00;;;;;;5053625;28;20137;-86
2022/01/19 05:13:27;;;;;;;86.80;18.00;;;-0.90;96.20;;;;;;5058978;28;20056;-87
2022/01/19 05:15:54;;;;;;;165.98;19.63;;;-0.90;96.20;;;;;;5045229;28;20055;-86
2022/01/19 05:18:20;;;;;;;134.07;20.90;;;-0.90;96.10;;;;;;5047915;28;20075;-86
2022/01/19 05:20:49;;;;;;;64.55;19.25;;;-0.90;96.00;;;;;;5062199;28;20052;-86
2022/01/19 05:23:17;;;;;;;68.82;19.48;;;-0.90;95.90;;;;;;5060962;28;20050;-87
2022/01/19 05:25:45;;;;;;;57.65;18.65;;;-0.90;95.80;;;;;;5063156;28;20049;-86
2022/01/19 05:28:15;;;;;;;78.75;19.20;;;-1.00;95.80;;;;;;5060612;28;20053;-86
2022/01/19 05:30:42;;;;;;;64.45;18.67;;;-0.90;95.80;;;;;;5045627;28;20049;-86
2022/01/19 05:33:09;;;;;;;48.17;17.45;;;-1.00;95.70;;;;;;5069405;28;20897;-86
2022/01/19 05:35:38;;;;;;;55.42;17.85;;;-1.00;95.80;;;;;;5101897;28;20791;-87
2022/01/19 05:38:05;;;;;;;57.85;16.60;;;-0.90;95.80;;;;;;5098457;27;21004;-86
2022/01/19 05:40:32;;;;;;;59.25;18.02;;;-0.90;95.80;;;;;;5092677;28;20068;-86
2022/01/19 05:42:59;;;;;;;60.53;19.73;;;-0.90;95.80;;;;;;5096530;28;20062;-87
2022/01/19 05:45:26;;;;;;;84.97;20.13;;;-0.80;95.70;;;;;;5104851;28;20052;-86
2022/01/19 05:47:53;;;;;;;66.72;19.95;;;-0.80;95.80;;;;;;5107263;28;20056;-86
2022/01/19 05:50:20;;;;;;;57.15;18.45;;;-0.70;95.90;;;;;;5102012;28;20143;-87
2022/01/19 05:52:47;;;;;;;104.97;20.58;;;-0.70;96.00;;;;;;5100660;28;20134;-86
2022/01/19 05:55:13;;;;;;;106.00;20.42;;;-0.70;96.00;;;;;;5102602;27;20098;-86
2022/01/19 05:57:44;;;;;;;53.47;17.27;;;-0.60;96.20;;;;;;5105882;28;20093;-86
2022/01/19 06:00:31;;;;;;;93.68;18.83;;;-0.60;96.30;;;;;;5081227;28;20892;-86
2022/01/19 06:02:58;;;;;;;67.30;18.33;;;-0.60;96.30;;;;;;5107678;27;20166;-87
2022/01/19 06:05:25;;;;;;;56.40;17.77;;;-0.50;96.30;;;;;;5107842;28;20484;-87
2022/01/19 06:08:11;;;;;;;56.30;18.05;;;-0.50;96.40;;;;;;5100865;28;20054;-86
2022/01/19 06:10:44;;;;;;;110.30;20.40;;;-0.40;96.30;;;;;;5104115;28;20056;-86
2022/01/19 06:13:20;;;;;;;76.18;21.00;;;-0.40;96.30;;;;;;5101324;28;20337;-86
2022/01/19 06:15:47;;;;;;;89.82;20.73;;;-0.30;96.20;;;;;;5105979;28;20048;-86
2022/01/19 06:18:16;;;;;;;61.92;19.52;;;-0.30;96.30;;;;;;5102285;28;20048;-86
2022/01/19 06:20:43;;;;;;;59.50;19.05;;;-0.30;96.40;;;;;;5095503;28;20413;-86
2022/01/19 06:23:10;;;;;;;65.85;20.02;;;-0.20;96.30;;;;;;5102136;28;20173;-86
2022/01/19 06:25:39;;;;;;;68.88;19.73;;;-0.20;96.30;;;;;;5096818;28;20061;-86
2022/01/19 06:28:06;;;;;;;71.28;19.23;;;-0.20;96.20;;;;;;5097644;28;20599;-86
2022/01/19 06:30:38;;;;;;;65.13;19.40;;;-0.10;96.20;;;;;;5102391;28;20526;-86
2022/01/19 06:33:05;;;;;;;70.53;19.55;;;-0.10;96.20;;;;;;5097619;28;20075;-85
2022/01/19 06:35:38;;;;;;;98.28;21.85;;;0.00;96.10;;;;;;5099587;28;20052;-85
2022/01/19 06:38:05;;;;;;;60.85;19.75;;;0.00;96.20;;;;;;5095293;28;20139;-86
2022/01/19 06:40:32;;;;;;;71.50;19.80;;;0.00;96.20;;;;;;5104687;28;20110;-86
2022/01/19 06:43:03;;;;;;;74.20;20.45;;;0.10;96.20;;;;;;5103630;28;20048;-87
2022/01/19 06:45:32;;;;;;;67.25;19.75;;;0.10;96.30;;;;;;5102327;28;20051;-86
2022/01/19 06:47:59;;;;;;;57.70;18.63;;;0.10;96.50;;;;;;5108098;28;20231;-85
2022/01/19 06:50:31;;;;;;;68.60;20.42;;;0.20;96.50;;;;;;5097005;28;20083;-86
2022/01/19 06:52:58;;;;;;;65.97;20.13;;;0.20;96.50;;;;;;5099857;28;20125;-86
2022/01/19 06:55:25;;;;;;;64.53;20.02;;;0.20;96.40;;;;;;5102809;28;20075;-86
2022/01/19 06:57:53;;;;;;;77.03;21.75;;;0.30;96.50;;;;;;5102035;28;20118;-86
2022/01/19 07:00:21;;;;;;;82.03;22.83;;;0.30;96.40;;;;;;5099515;27;20059;-86
2022/01/19 07:02:50;;;;;;;83.03;24.02;;;0.40;96.50;;;;;;5095088;28;20063;-86
2022/01/19 07:05:19;;;;;;;81.45;24.75;;;0.40;96.50;;;;;;5101783;28;20059;-86
2022/01/19 07:07:54;;;;;;;145.02;32.83;;;0.50;96.50;;;;;;5099939;27;20056;-86
2022/01/19 07:13:54;;;;;;;131.35;30.60;;;0.70;96.90;;;;;;5044442;28;20061;-85
2022/01/19 07:16:30;;;;;;;117.32;30.15;;;0.80;97.10;;;;;;5033936;28;20057;-85
2022/01/19 07:18:57;;;;;;;174.02;36.92;;;0.80;97.10;;;;;;5026479;28;20050;-86
2022/01/19 07:21:24;;;;;;;165.05;38.00;;;0.90;97.20;;;;;;5031795;28;20049;-86
2022/01/19 07:23:51;;;;;;;178.02;38.05;;;1.00;97.30;;;;;;5038859;28;20659;-86
2022/01/19 07:26:25;;;;;;;166.50;38.17;;;1.00;97.50;;;;;;5044256;28;20064;-86
2022/01/19 07:28:53;;;;;;;223.13;41.13;;;1.10;97.60;;;;;;5049502;28;20063;-86
2022/01/19 07:31:20;;;;;;;174.73;37.83;;;1.10;97.70;;;;;;5048191;28;20053;-86
2022/01/19 07:33:50;;;;;;;217.07;40.17;;;1.20;97.70;;;;;;5047936;28;20058;-85
2022/01/19 07:36:26;;;;;;;195.90;39.00;;;1.30;97.80;;;;;;5049213;28;20080;-86
2022/01/19 07:38:55;;;;;;;233.82;43.05;;;1.30;97.70;;;;;;5028435;28;20064;-85
2022/01/19 07:41:25;;;;;;;198.27;38.63;;;1.30;97.80;;;;;;5044398;28;20077;-85
2022/01/19 07:43:53;;;;;;;189.15;40.20;;;1.40;97.70;;;;;;5028710;28;20057;-85
2022/01/19 07:46:25;;;;;;;218.45;41.65;;;1.40;97.70;;;;;;5049435;28;20050;-86
2022/01/19 07:48:59;;;;;;;279.70;42.38;;;1.40;97.80;;;;;;5046353;28;20131;-85
2022/01/19 07:51:29;;;;;;;192.57;40.20;;;1.50;97.80;;;;;;5090178;28;20072;-86
2022/01/19 07:53:58;;;;;;;185.82;39.47;;;1.50;97.70;;;;;;5096820;28;20554;-85
2022/01/19 07:56:32;;;;;;;205.00;40.35;;;1.50;97.80;;;;;;5094447;27;20048;-85
2022/01/19 07:58:59;;;;;;;247.88;41.42;;;1.50;97.80;;;;;;5103952;28;20140;-85
2022/01/19 08:01:31;;;;;;;200.20;39.70;;;1.60;97.80;;;;;;5104357;28;20048;-85
2022/01/19 08:04:06;;;;;;;209.05;41.00;;;1.60;97.80;;;;;;5098176;28;20107;-85
2022/01/19 08:06:40;;;;;;;180.70;39.97;;;1.60;97.70;;;;;;5093897;28;20051;-86
2022/01/19 08:09:09;;;;;;;189.95;40.53;;;1.70;97.70;;;;;;5099499;28;20106;-86
2022/01/19 08:11:36;;;;;;;241.18;42.47;;;1.60;97.70;;;;;;5104426;28;20051;-85
2022/01/19 08:14:07;;;;;;;191.18;42.15;;;1.70;97.70;;;;;;5106759;28;20518;-85
2022/01/19 08:16:45;;;;;;;170.48;41.25;;;1.70;97.70;;;;;;5098823;27;20503;-86
2022/01/19 08:19:15;;;;;;;202.65;44.47;;;1.70;97.70;;;;;;5095167;27;20131;-85
2022/01/19 08:21:45;;;;;;;202.63;41.75;;;1.70;97.70;;;;;;5095529;28;20057;-85
2022/01/19 08:24:21;;;;;;;185.48;40.38;;;1.80;97.80;;;;;;5097701;28;20105;-86
2022/01/19 08:27:15;;;;;;;193.95;41.97;;;1.80;97.70;;;;;;5095469;28;20060;-86
2022/01/19 08:30:14;;;;;;;211.80;44.33;;;1.80;97.70;;;;;;5098260;28;20052;-85
2022/01/19 08:32:45;;;;;;;191.95;43.17;;;1.80;97.70;;;;;;5095603;28;20056;-85
2022/01/19 08:35:14;;;;;;;240.43;42.83;;;1.90;97.80;;;;;;5106101;27;20057;-86
2022/01/19 08:37:41;;;;;;;220.45;45.72;;;1.90;97.80;;;;;;5102694;28;20049;-85
2022/01/19 08:40:14;;;;;;;222.93;46.08;;;1.90;97.70;;;;;;5095247;28;20139;-85
2022/01/19 08:42:46;;;;;;;160.63;42.00;;;1.90;97.70;;;;;;5097594;28;20094;-86
2022/01/19 08:45:13;;;;;;;202.88;43.67;;;1.90;97.60;;;;;;5098405;28;20110;-86
2022/01/19 08:47:40;;;;;;;210.60;43.67;;;1.90;97.60;;;;;;5097017;27;20446;-85
2022/01/19 08:50:10;;;;;;;208.80;43.28;;;2.00;97.60;;;;;;5092837;28;20052;-86
2022/01/19 08:52:38;;;;;;;179.40;41.42;;;2.00;97.70;;;;;;5099607;28;20076;-85
2022/01/19 08:55:06;;;;;;;197.50;42.63;;;2.00;97.60;;;;;;5093538;27;20818;-85
2022/01/19 08:57:44;;;;;;;173.48;42.97;;;2.00;97.70;;;;;;5099889;28;20166;-85
2022/01/19 09:00:16;;;;;;;168.95;42.97;;;2.00;97.70;;;;;;5104970;28;20055;-85
2022/01/19 09:02:43;;;;;;;170.90;40.97;;;2.00;97.60;;;;;;5101751;27;21692;-86
2022/01/19 09:05:13;;;;;;;155.00;39.72;;;2.00;97.60;;;;;;5098647;28;20928;-86
2022/01/19 09:07:40;;;;;;;177.95;42.65;;;2.00;97.60;;;;;;5101306;28;20044;-85
2022/01/19 09:10:25;;;;;;;156.02;39.85;;;2.00;97.60;;;;;;5093573;28;20102;-85
2022/01/19 09:12:58;;;;;;;164.88;41.90;;;2.00;97.70;;;;;;5100830;28;20052;-85
2022/01/19 09:15:25;;;;;;;181.43;41.40;;;2.10;97.70;;;;;;5098366;28;20079;-85
2022/01/19 09:18:04;;;;;;;162.18;39.50;;;2.10;97.70;;;;;;5098897;28;20491;-86
2022/01/19 09:20:41;;;;;;;147.38;39.47;;;2.20;97.70;;;;;;5101770;27;20131;-85
2022/01/19 09:23:17;;;;;;;136.70;37.92;;;2.20;97.70;;;;;;5102513;28;20052;-85
2022/01/19 09:25:44;;;;;;;142.07;38.63;;;2.20;97.70;;;;;;5101366;27;20209;-85
2022/01/19 09:28:13;;;;;;;168.35;38.20;;;2.20;97.60;;;;;;5096948;28;20051;-85
2022/01/19 09:30:42;;;;;;;133.35;38.33;;;2.30;97.70;;;;;;5107321;28;20503;-85
2022/01/19 09:33:29;;;;;;;144.43;39.60;;;2.30;97.70;;;;;;5101688;27;20075;-85
2022/01/19 09:38:37;;;;;;;138.07;39.45;;;2.40;97.60;;;;;;5097134;28;20045;-85
2022/01/19 09:41:15;;;;;;;121.30;38.08;;;2.40;97.60;;;;;;5103669;28;20553;-85
2022/01/19 09:43:44;;;;;;;145.38;39.55;;;2.40;97.50;;;;;;5104151;28;20049;-85
2022/01/19 09:46:14;;;;;;;130.98;37.38;;;2.40;97.50;;;;;;5098866;28;20051;-85
2022/01/19 09:48:44;;;;;;;137.88;38.30;;;2.40;97.40;;;;;;5094850;28;20515;-85
2022/01/19 09:51:26;;;;;;;133.20;38.25;;;2.50;97.50;;;;;;5097453;28;20532;-85
2022/01/19 09:54:23;;;;;;;122.72;35.53;;;2.50;97.50;;;;;;5097855;28;20231;-85
2022/01/19 09:56:59;;;;;;;105.90;36.10;;;2.60;97.50;;;;;;5093167;28;20056;-85
2022/01/19 09:59:29;;;;;;;126.70;36.75;;;2.60;97.50;;;;;;5094298;28;20048;-85
2022/01/19 10:02:10;;;;;;;124.82;36.80;;;2.60;97.40;;;;;;5098744;28;20052;-86
2022/01/19 10:04:45;;;;;;;111.57;37.50;;;2.70;97.40;;;;;;5102894;28;20052;-86
2022/01/19 10:07:20;;;;;;;117.43;37.03;;;2.70;97.30;;;;;;5095466;28;20052;-85
2022/01/19 10:10:23;;;;;;;119.70;36.53;;;2.70;97.30;;;;;;5100802;28;20499;-86
2022/01/19 10:19:19;;;;;;;109.57;33.08;;;2.80;97.20;;;;;;5096074;28;20443;-86
2022/01/19 10:22:14;;;;;;;83.63;31.65;;;2.80;96.90;;;;;;5095235;28;20048;-85
2022/01/19 10:24:50;;;;;;;94.90;35.33;;;2.80;97.00;;;;;;5095497;28;20057;-85
2022/01/19 10:27:32;;;;;;;92.85;33.50;;;2.80;97.00;;;;;;5100858;28;20991;-85
2022/01/19 10:30:05;;;;;;;80.25;32.10;;;2.80;97.00;;;;;;5100574;28;20496;-86
2022/01/19 10:32:37;;;;;;;93.28;33.40;;;2.80;97.00;;;;;;5096574;27;20049;-85
2022/01/19 10:35:15;;;;;;;87.55;33.28;;;2.80;96.90;;;;;;5106964;27;20052;-85
2022/01/19 10:37:46;;;;;;;90.75;32.78;;;2.80;96.80;;;;;;5103045;28;20118;-85
2022/01/19 10:40:18;;;;;;;108.72;34.33;;;2.90;96.80;;;;;;5103621;28;20044;-85
2022/01/19 10:42:59;;;;;;;91.97;34.30;;;3.00;96.80;;;;;;5099025;28;20055;-85
2022/01/19 10:45:35;;;;;;;91.95;33.42;;;3.00;96.80;;;;;;5099035;28;20067;-85
2022/01/19 10:48:04;;;;;;;89.38;33.00;;;3.00;96.70;;;;;;5100370;28;20053;-85
2022/01/19 10:50:34;;;;;;;84.53;33.38;;;3.00;96.70;;;;;;5096527;28;20048;-85
2022/01/19 10:53:04;;;;;;;77.95;32.35;;;3.10;96.70;;;;;;5102448;27;20060;-85
2022/01/19 10:55:44;;;;;;;72.55;31.35;;;3.10;96.50;;;;;;5108347;28;20052;-84
2022/01/19 10:58:14;;;;;;;78.15;31.50;;;3.10;96.30;;;;;;5100680;28;20056;-85
2022/01/19 11:00:59;;;;;;;82.43;31.13;;;3.10;96.30;;;;;;5096208;27;20494;-85
2022/01/19 11:03:28;;;;;;;71.60;31.10;;;3.20;96.30;;;;;;5098979;28;20059;-85
2022/01/19 11:06:00;;;;;;;80.93;32.88;;;3.20;96.20;;;;;;5109833;28;20098;-86
2022/01/19 11:08:40;;;;;;;74.88;31.27;;;3.20;96.20;;;;;;5100437;28;20539;-85
2022/01/19 11:11:17;;;;;;;76.38;30.48;;;3.20;96.20;;;;;;5105805;28;20435;-85
2022/01/19 11:13:44;;;;;;;72.55;31.30;;;3.20;96.20;;;;;;5108588;28;20048;-85
2022/01/19 11:16:21;;;;;;;74.50;30.20;;;3.20;96.10;;;;;;5105251;28;20492;-85
2022/01/19 11:19:00;;;;;;;78.30;31.38;;;3.20;96.10;;;;;;5105248;28;20052;-85
2022/01/19 11:21:44;;;;;;;75.30;33.75;;;3.20;95.90;;;;;;5103292;28;20048;-85
2022/01/19 11:24:51;;;;;;;79.10;30.77;;;3.20;95.80;;;;;;5104343;28;20045;-85
2022/01/19 11:27:46;;;;;;;63.20;29.67;;;3.20;95.80;;;;;;5077168;28;20052;-85
2022/01/19 11:30:33;;;;;;;76.85;31.10;;;3.20;95.90;;;;;;5101159;28;20052;-85
2022/01/19 11:33:27;;;;;;;75.93;31.67;;;3.20;95.80;;;;;;5106927;28;20071;-85
2022/01/19 11:36:17;;;;;;;95.78;32.30;;;3.30;96.00;;;;;;5111545;28;20059;-85
2022/01/19 11:39:04;;;;;;;79.32;32.88;;;3.30;96.10;;;;;;5105723;28;20409;-87
2022/01/19 11:41:45;;;;;;;76.28;32.05;;;3.40;96.20;;;;;;5103508;28;20048;-86
2022/01/19 11:44:20;;;;;;;68.50;30.55;;;3.40;96.10;;;;;;5095643;28;20052;-86
2022/01/19 11:46:53;;;;;;;76.25;33.30;;;3.50;96.10;;;;;;5094239;28;20805;-85
2022/01/19 11:49:57;;;;;;;77.18;33.22;;;3.60;96.10;;;;;;5094547;28;20056;-86
2022/01/19 11:52:51;;;;;;;;;;;3.70;95.90;;;;;;5103478;28;20048;-86
2022/01/19 11:55:33;;;;;;;69.40;31.02;;;3.90;96.00;;;;;;5106626;28;19932;-85
2022/01/19 11:58:32;;;;;;;64.50;30.52;;;4.10;95.80;;;;;;5094118;28;20177;-86
2022/01/19 12:01:28;;;;;;;60.53;30.33;;;4.20;95.40;;;;;;5097168;28;20055;-86
2022/01/19 12:04:20;;;;;;;58.95;29.30;;;4.30;94.40;;;;;;5093823;28;20044;-86
2022/01/19 12:07:01;;;;;;;64.70;30.67;;;4.30;94.00;;;;;;5094390;28;20139;-86
2022/01/19 12:09:57;;;;;;;59.63;29.60;;;4.40;94.40;;;;;;5093925;28;20106;-86
2022/01/19 12:12:32;;;;;;;64.22;30.55;;;4.40;94.20;;;;;;5100489;28;20052;-85
2022/01/19 12:15:04;;;;;;;60.47;27.70;;;4.60;94.30;;;;;;5103046;28;20056;-85
2022/01/19 12:18:09;;;;;;;62.70;30.38;;;4.60;93.30;;;;;;5108411;27;20733;-86
2022/01/19 12:20:51;;;;;;;62.55;28.83;;;4.70;93.70;;;;;;5083810;28;20045;-86
2022/01/19 12:23:32;;;;;;;56.38;27.75;;;4.70;93.80;;;;;;5076731;28;20064;-86
2022/01/19 12:26:14;;;;;;;54.70;26.70;;;4.60;93.20;;;;;;5084117;28;20029;-85
2022/01/19 12:28:57;;;;;;;54.58;27.80;;;4.50;92.90;;;;;;5081779;28;20062;-86
2022/01/19 12:31:32;;;;;;;;;;;4.50;93.20;;;;;;5080621;28;20049;-86
2022/01/19 12:34:02;;;;;;;56.50;28.15;;;4.40;92.60;;;;;;5075580;28;20061;-86
2022/01/19 12:36:55;;;;;;;66.03;30.75;;;4.50;93.10;;;;;;5080552;28;20052;-86
2022/01/19 12:39:36;;;;;;;60.28;28.70;;;4.50;93.30;;;;;;5084455;28;20045;-86
2022/01/19 12:42:30;;;;;;;54.28;27.90;;;4.60;93.60;;;;;;5080456;28;20061;-86
2022/01/19 12:45:32;;;;;;;55.85;28.48;;;4.60;92.80;;;;;;5081781;28;20114;-86
2022/01/19 12:48:04;;;;;;;50.88;27.13;;;4.70;92.80;;;;;;5083376;28;20053;-86
2022/01/19 12:50:37;;;;;;;68.45;29.02;;;4.70;92.00;;;;;;5079332;28;20049;-85
2022/01/19 12:53:23;;;;;;;48.28;26.50;;;4.60;92.30;;;;;;5077853;28;20052;-86
2022/01/19 12:56:07;;;;;;;50.30;26.85;;;4.70;92.00;;;;;;5076468;28;20123;-85
2022/01/19 12:58:41;;;;;;;66.80;27.58;;;4.70;92.30;;;;;;5077268;28;20049;-86
2022/01/19 13:01:23;;;;;;;54.40;28.10;;;4.70;92.10;;;;;;5073929;28;20051;-85
2022/01/19 13:03:50;;;;;;;49.78;27.35;;;4.70;91.90;;;;;;5076857;28;20051;-85
2022/01/19 13:06:45;;;;;;;60.33;27.40;;;4.70;91.20;;;;;;5074009;28;20487;-86
2022/01/19 13:09:26;;;;;;;56.58;27.30;;;4.70;91.60;;;;;;5077622;28;20048;-86
2022/01/19 13:12:01;;;;;;;58.63;28.15;;;4.70;91.60;;;;;;5082397;28;20130;-85
2022/01/19 13:14:29;;;;;;;55.78;27.30;;;4.60;91.40;;;;;;5083112;28;20849;-85
2022/01/19 13:17:01;;;;;;;56.70;29.58;;;4.60;91.50;;;;;;5080919;28;20053;-86
2022/01/19 13:19:40;;;;;;;56.28;27.48;;;4.60;91.50;;;;;;5087761;28;20578;-86
2022/01/19 13:22:41;;;;;;;59.33;29.15;;;4.60;91.90;;;;;;5103166;28;20860;-85
2022/01/19 13:25:22;;;;;;;61.05;28.90;;;4.60;92.10;;;;;;5099689;27;20106;-86
2022/01/19 13:27:55;;;;;;;57.85;28.73;;;4.60;92.30;;;;;;5096423;28;20053;-86
2022/01/19 13:30:34;;;;;;;57.08;27.77;;;4.60;92.10;;;;;;5102703;28;20130;-86
2022/01/19 13:33:21;;;;;;;60.15;28.15;;;4.60;91.70;;;;;;5099695;28;20070;-86
2022/01/19 13:36:04;;;;;;;57.45;27.85;;;4.60;91.80;;;;;;5097580;28;20094;-86
2022/01/19 13:38:40;;;;;;;58.58;28.90;;;4.60;92.20;;;;;;5096004;28;20048;-86
2022/01/19 13:41:10;;;;;;;56.22;26.83;;;4.70;92.50;;;;;;5103419;28;20147;-86
2022/01/19 13:43:51;;;;;;;;;;;4.70;92.10;;;;;;5095239;27;20071;-86
2022/01/19 13:46:30;;;;;;;55.15;26.60;;;4.70;91.90;;;;;;5094701;28;19925;-85
2022/01/19 13:49:04;;;;;;;52.65;26.63;;;4.60;91.90;;;;;;5114077;27;20055;-86
2022/01/19 13:51:51;;;;;;;51.90;26.98;;;4.60;92.20;;;;;;5097825;28;20547;-85
2022/01/19 13:54:25;;;;;;;59.33;28.27;;;4.70;92.00;;;;;;5099802;28;21005;-85
2022/01/19 13:57:32;;;;;;;52.53;27.08;;;4.70;92.20;;;;;;5099314;28;20064;-86
2022/01/19 14:00:23;;;;;;;53.88;28.08;;;4.70;92.10;;;;;;5100401;28;20048;-85
2022/01/19 14:03:03;;;;;;;57.50;28.20;;;4.70;92.20;;;;;;5099787;28;20045;-85
2022/01/19 14:05:44;;;;;;;52.08;27.13;;;4.80;92.30;;;;;;5100717;28;20168;-85
2022/01/19 14:08:36;;;;;;;53.42;27.70;;;4.70;91.20;;;;;;5099824;28;20110;-84
2022/01/19 14:11:04;;;;;;;60.65;28.27;;;4.80;91.90;;;;;;5092684;28;20912;-85
2022/01/19 14:13:47;;;;;;;52.95;27.15;;;4.80;92.40;;;;;;5106144;27;20581;-85
2022/01/19 14:16:47;;;;;;;57.35;27.65;;;4.80;92.00;;;;;;5102294;28;20056;-85
2022/01/19 14:19:53;;;;;;;47.85;25.98;;;4.80;92.20;;;;;;5102837;28;20056;-85
2022/01/19 14:22:33;;;;;;;57.70;26.05;;;4.70;91.80;;;;;;5103174;28;20052;-85
2022/01/19 14:25:05;;;;;;;51.60;24.73;;;4.70;91.90;;;;;;5108926;28;20550;-85
2022/01/19 14:28:04;;;;;;;62.67;27.70;;;4.70;92.10;;;;;;5107780;27;20060;-85
2022/01/19 14:30:34;;;;;;;52.72;25.25;;;4.70;92.10;;;;;;5093803;28;20072;-85
2022/01/19 14:33:15;;;;;;;54.65;24.35;;;4.70;92.10;;;;;;5100951;28;20044;-85
2022/01/19 14:35:42;;;;;;;52.80;25.52;;;4.70;92.10;;;;;;5097075;28;20041;-85
2022/01/19 14:38:36;;;;;;;50.00;24.83;;;4.70;92.10;;;;;;5097910;27;20909;-85